This is the latest recevied weather packets stored in our database for station/object W5GGH. If no packets are shown the sender has not sent any weather packets the latest 1 day(s).
| Time | Temp. | Humidity | Pressure | Rain* | Wind** | Luminosity | Snow |
|---|---|---|---|---|---|---|---|
| 1778006520 | 31.67° C | 58% | 1021.7 hPa | 0 mm | 0.89 m/s, 142° | 708 W/m² | - |
| 1778006217 | 31.67° C | 59% | 1021.7 hPa | 0 mm | 0.89 m/s, 57° | 607 W/m² | - |
| 1778005915 | 31.67° C | 61% | 1021.7 hPa | 0 mm | 0.89 m/s, 53° | 910 W/m² | - |
| 1778005610 | 31.11° C | 61% | 1021.8 hPa | 0 mm | 0.89 m/s, 12° | 747 W/m² | - |
| 1778005308 | 31.11° C | 60% | 1021.8 hPa | 0 mm | 0.89 m/s, 352° | 731 W/m² | - |
| 1778005004 | 31.11° C | 62% | 1022 hPa | 0 mm | 0.89 m/s, 57° | 943 W/m² | - |
| 1778004702 | 30.56° C | 61% | 1021.8 hPa | 0 mm | 0.89 m/s, 353° | 805 W/m² | - |
| 1778004398 | 30.56° C | 63% | 1021.9 hPa | 0 mm | 0.45 m/s, 349° | 694 W/m² | - |
| 1778004095 | 30° C | 63% | 1022.1 hPa | 0 mm | 0.89 m/s, 133° | 708 W/m² | - |
| 1778003791 | 30° C | 64% | 1022 hPa | 0 mm | 0.89 m/s, 19° | 558 W/m² | - |
| 1778003488 | 30° C | 65% | 1021.8 hPa | 0 mm | 0.89 m/s, 326° | 632 W/m² | - |
| 1778003184 | 30° C | 63% | 1022 hPa | 0 mm | 0.89 m/s, 222° | 624 W/m² | - |
| 1778002880 | 29.44° C | 64% | 1022.1 hPa | 0 mm | 0 m/s | 642 W/m² | - |
| 1778002577 | 29.44° C | 65% | 1022 hPa | 0 mm | 0.45 m/s, 183° | 483 W/m² | - |
| 1778002274 | 28.89° C | 65% | 1022 hPa | 0 mm | 0.89 m/s, 36° | 574 W/m² | - |
| 1778001972 | 28.89° C | 66% | 1022.3 hPa | 0 mm | 0 m/s | 561 W/m² | - |
| 1778001668 | 28.89° C | 67% | 1022.1 hPa | 0 mm | 0.89 m/s, 298° | 554 W/m² | - |
| 1778001363 | 28.33° C | 67% | 1022.1 hPa | 0 mm | 0 m/s | 660 W/m² | - |
| 1778001060 | 27.78° C | 68% | 1022.3 hPa | 0 mm | 0.89 m/s, 69° | 477 W/m² | - |
| 1778000757 | 27.78° C | 69% | 1022.2 hPa | 0 mm | 0.89 m/s, 320° | 383 W/m² | - |
| 1778000453 | 27.78° C | 68% | 1022.3 hPa | 0 mm | 0.45 m/s, 123° | 353 W/m² | - |
| 1778000148 | 27.78° C | 68% | 1022.2 hPa | 0 mm | 1.34 m/s, 308° | 403 W/m² | - |
| 1777999845 | 27.78° C | 69% | 1022.2 hPa | 0 mm | 0.45 m/s, 137° | 477 W/m² | - |
| 1777999540 | 28.33° C | 67% | 1022.3 hPa | 0 mm | 0.89 m/s, 91° | 445 W/m² | - |
| 1777999238 | 28.33° C | 68% | 1022.2 hPa | 0 mm | 0.89 m/s, 92° | 466 W/m² | - |
* Rain latest hour (hover to see other rain measurements)
** Current wind speed in m/s (hover to see current wind gust speed)